Time;durP1;ratioP1;P1;durP2;ratioP2;P2;SDS_P1;SDS_P2;PMS_P1;PMS_P2;Temp;Humidity;BMP_temperature;BMP_pressure;BME280_temperature;BME280_humidity;BME280_pressure;Samples;Min_cycle;Max_cycle;Signal;HPM_P1;HPM_P2
2022/01/29 00:00:50;;;;;;;23.53;12.87;;;5.90;99.90;;;;;;4953449;29;20187;-75
2022/01/29 00:03:15;;;;;;;23.70;13.60;;;5.90;99.90;;;;;;4952130;29;20267;-75
2022/01/29 00:05:41;;;;;;;20.50;12.00;;;5.90;99.90;;;;;;4953193;28;20199;-75
2022/01/29 00:08:07;;;;;;;21.90;12.60;;;5.90;99.90;;;;;;4953216;28;20291;-75
2022/01/29 00:10:33;;;;;;;27.33;13.47;;;5.90;99.90;;;;;;4953631;28;20188;-75
2022/01/29 00:12:59;;;;;;;18.90;11.93;;;5.90;99.90;;;;;;4952101;28;20183;-75
2022/01/29 00:15:24;;;;;;;26.63;14.27;;;5.90;99.90;;;;;;4951953;28;20329;-75
2022/01/29 00:17:50;;;;;;;25.27;14.37;;;5.90;99.90;;;;;;4953078;28;20189;-76
2022/01/29 00:20:15;;;;;;;25.20;14.33;;;6.00;99.90;;;;;;4951911;29;20182;-76
2022/01/29 00:22:41;;;;;;;23.53;15.60;;;6.00;99.90;;;;;;4953135;29;20187;-76
2022/01/29 00:25:08;;;;;;;26.00;15.97;;;6.00;99.90;;;;;;4953074;28;20202;-76
2022/01/29 00:27:35;;;;;;;29.50;15.83;;;6.00;99.90;;;;;;4953081;28;20237;-76
2022/01/29 00:30:06;;;;;;;28.67;16.67;;;6.00;99.90;;;;;;4953222;28;20182;-76
2022/01/29 00:32:32;;;;;;;30.20;17.37;;;6.00;99.90;;;;;;4952018;28;20571;-75
2022/01/29 00:34:57;;;;;;;28.77;17.87;;;6.10;99.90;;;;;;4951665;28;20247;-77
2022/01/29 00:37:23;;;;;;;29.03;17.67;;;6.10;99.90;;;;;;4952828;28;20179;-76
2022/01/29 00:39:49;;;;;;;32.23;18.07;;;6.10;99.90;;;;;;4952899;28;20176;-76
2022/01/29 00:42:14;;;;;;;29.17;17.10;;;6.10;99.90;;;;;;4952867;29;20176;-76
2022/01/29 00:44:40;;;;;;;34.13;17.20;;;6.10;99.90;;;;;;4952671;28;20195;-76
2022/01/29 00:47:05;;;;;;;33.70;17.47;;;6.10;99.90;;;;;;4950939;29;20191;-76
2022/01/29 00:49:31;;;;;;;32.03;17.43;;;6.10;99.90;;;;;;4952655;28;20179;-76
2022/01/29 00:51:57;;;;;;;30.87;18.00;;;6.10;99.90;;;;;;4953054;28;20174;-76
2022/01/29 00:54:23;;;;;;;32.57;18.27;;;6.20;99.90;;;;;;4951342;28;20214;-76
2022/01/29 00:56:48;;;;;;;34.83;18.70;;;6.20;99.90;;;;;;4952553;28;20187;-76
2022/01/29 00:59:14;;;;;;;28.27;17.23;;;6.20;99.90;;;;;;4952583;28;20171;-76
2022/01/29 01:01:39;;;;;;;32.03;18.10;;;6.20;99.90;;;;;;4951422;29;20530;-76
2022/01/29 01:04:05;;;;;;;34.07;19.00;;;6.20;99.90;;;;;;4952576;28;20584;-76
2022/01/29 01:06:31;;;;;;;32.70;19.40;;;6.20;99.90;;;;;;4950936;28;20707;-76
2022/01/29 01:08:56;;;;;;;30.73;18.50;;;6.20;99.90;;;;;;4951219;28;20186;-76
2022/01/29 01:11:22;;;;;;;33.17;19.47;;;6.20;99.90;;;;;;4951291;28;20254;-77
2022/01/29 01:13:47;;;;;;;33.43;19.20;;;6.20;99.90;;;;;;4951201;28;20206;-76
2022/01/29 01:16:13;;;;;;;29.77;18.57;;;6.20;99.90;;;;;;4950857;28;20626;-76
2022/01/29 01:18:38;;;;;;;32.20;18.80;;;6.20;99.90;;;;;;4951012;29;20266;-76
2022/01/29 01:21:04;;;;;;;33.43;18.63;;;6.30;99.90;;;;;;4952295;28;20175;-76
2022/01/29 01:23:29;;;;;;;32.83;18.63;;;6.30;99.90;;;;;;4951975;28;20585;-77
2022/01/29 01:25:55;;;;;;;36.80;19.60;;;6.20;99.90;;;;;;4952259;28;20199;-76
2022/01/29 01:28:20;;;;;;;32.43;19.03;;;6.30;99.90;;;;;;4952319;28;20226;-76
2022/01/29 01:30:46;;;;;;;34.03;18.47;;;6.30;99.90;;;;;;4952266;28;20178;-76
2022/01/29 01:33:12;;;;;;;33.53;19.27;;;6.30;99.90;;;;;;4951949;28;20254;-75
2022/01/29 01:35:45;;;;;;;31.47;17.83;;;6.30;99.90;;;;;;4951962;28;20234;-76
2022/01/29 01:41:07;;;;;;;32.20;18.23;;;6.30;99.90;;;;;;4967329;28;20244;-75
2022/01/29 01:43:32;;;;;;;30.73;18.80;;;6.30;99.90;;;;;;4951748;28;20186;-76
2022/01/29 01:45:58;;;;;;;35.30;18.57;;;6.30;99.90;;;;;;4954031;28;20202;-76
2022/01/29 01:48:24;;;;;;;36.17;19.73;;;6.30;99.90;;;;;;4954116;28;20187;-76
2022/01/29 01:50:50;;;;;;;30.23;18.07;;;6.20;99.90;;;;;;4954247;28;20175;-76
2022/01/29 01:53:15;;;;;;;31.57;18.83;;;6.30;99.90;;;;;;4955162;28;20691;-76
2022/01/29 01:55:41;;;;;;;29.33;17.43;;;6.30;99.90;;;;;;4955212;28;20211;-76
2022/01/29 01:58:07;;;;;;;30.60;18.40;;;6.30;99.90;;;;;;4955294;28;20209;-76
2022/01/29 02:00:33;;;;;;;32.17;17.90;;;6.30;99.90;;;;;;4954041;29;20210;-76
2022/01/29 02:02:59;;;;;;;29.50;18.10;;;6.30;99.90;;;;;;4954954;28;20175;-76
2022/01/29 02:05:25;;;;;;;32.40;18.73;;;6.30;99.90;;;;;;4955196;28;20245;-76
2022/01/29 02:07:51;;;;;;;33.87;17.87;;;6.30;99.90;;;;;;4955719;28;20707;-76
2022/01/29 02:10:19;;;;;;;26.63;18.47;;;6.30;99.90;;;;;;4953913;28;20203;-76
2022/01/29 02:12:46;;;;;;;29.83;17.87;;;6.40;99.90;;;;;;4952741;29;20182;-78
2022/01/29 02:15:12;;;;;;;33.23;18.50;;;6.40;99.90;;;;;;4954861;28;20230;-76
2022/01/29 02:17:38;;;;;;;31.40;19.03;;;6.40;99.90;;;;;;4953815;28;20182;-76
2022/01/29 02:20:04;;;;;;;28.67;18.03;;;6.40;99.90;;;;;;4955195;28;20554;-76
2022/01/29 02:22:30;;;;;;;31.80;18.27;;;6.40;99.90;;;;;;4954925;28;20210;-76
2022/01/29 02:24:55;;;;;;;33.47;18.40;;;6.40;99.90;;;;;;4955122;28;20230;-76
2022/01/29 02:27:21;;;;;;;28.57;17.80;;;6.30;99.90;;;;;;4954941;28;20237;-76
2022/01/29 02:29:49;;;;;;;32.67;18.77;;;6.30;99.90;;;;;;4954900;28;20207;-77
2022/01/29 02:32:14;;;;;;;29.83;17.60;;;6.40;99.90;;;;;;4955130;28;20646;-76
2022/01/29 02:34:43;;;;;;;26.63;17.67;;;6.30;99.90;;;;;;4954722;28;20329;-76
2022/01/29 02:37:08;;;;;;;31.17;17.63;;;6.40;99.90;;;;;;4953575;29;20266;-76
2022/01/29 02:39:34;;;;;;;30.50;17.70;;;6.40;99.90;;;;;;4953497;28;20684;-76
2022/01/29 02:42:00;;;;;;;28.93;17.43;;;6.40;99.90;;;;;;4953436;29;20252;-76
2022/01/29 02:44:25;;;;;;;30.50;17.37;;;6.40;99.90;;;;;;4954460;28;20669;-75
2022/01/29 02:49:19;;;;;;;32.57;18.60;;;6.40;99.90;;;;;;4954906;28;20210;-76
2022/01/29 02:51:50;;;;;;;29.70;17.37;;;6.30;99.90;;;;;;4954789;28;20171;-76
2022/01/29 02:54:16;;;;;;;26.37;17.90;;;6.40;99.90;;;;;;4953209;28;20740;-76
2022/01/29 02:56:42;;;;;;;30.20;17.90;;;6.30;99.90;;;;;;4951946;28;20290;-76
2022/01/29 02:59:08;;;;;;;33.20;18.10;;;6.30;99.90;;;;;;4954444;28;20553;-76
2022/01/29 03:01:34;;;;;;;28.77;17.80;;;6.40;99.90;;;;;;4953227;28;20175;-76
2022/01/29 03:04:00;;;;;;;31.57;17.43;;;6.30;99.90;;;;;;4954633;28;20171;-76
2022/01/29 03:06:25;;;;;;;35.60;17.90;;;6.30;99.90;;;;;;4954297;28;20270;-76
2022/01/29 03:08:52;;;;;;;30.77;18.83;;;6.40;99.90;;;;;;4954532;28;20639;-76
2022/01/29 03:11:19;;;;;;;28.27;17.03;;;6.30;99.90;;;;;;4954335;28;20179;-76
2022/01/29 03:13:48;;;;;;;28.77;17.80;;;6.30;99.90;;;;;;4954123;28;20175;-76
2022/01/29 03:16:14;;;;;;;35.10;17.67;;;6.30;99.90;;;;;;4952838;28;20289;-76
2022/01/29 03:18:40;;;;;;;31.20;17.07;;;6.30;99.90;;;;;;4954118;28;20258;-76
2022/01/29 03:21:05;;;;;;;37.53;17.53;;;6.30;99.90;;;;;;4954086;28;20182;-76
2022/01/29 03:23:31;;;;;;;26.47;15.77;;;6.30;99.90;;;;;;4954081;28;20615;-76
2022/01/29 03:25:56;;;;;;;28.83;16.23;;;6.30;99.90;;;;;;4952770;28;20199;-76
2022/01/29 03:28:22;;;;;;;28.37;16.37;;;6.40;99.90;;;;;;4952800;28;20175;-75
2022/01/29 03:30:47;;;;;;;29.40;16.97;;;6.30;99.90;;;;;;4953995;28;20174;-76
2022/01/29 03:33:13;;;;;;;30.20;16.83;;;6.30;99.90;;;;;;4952721;28;20669;-76
2022/01/29 03:35:38;;;;;;;28.73;16.97;;;6.40;99.90;;;;;;4953818;28;20222;-76
2022/01/29 03:38:04;;;;;;;23.47;16.20;;;6.30;99.90;;;;;;4953845;28;20206;-76
2022/01/29 03:40:31;;;;;;;34.07;17.57;;;6.30;99.90;;;;;;4953958;28;20569;-76
2022/01/29 03:43:07;;;;;;;27.27;16.43;;;6.40;99.90;;;;;;4951672;29;20558;-77
2022/01/29 03:45:33;;;;;;;28.57;17.10;;;6.30;99.90;;;;;;4953618;28;20289;-76
2022/01/29 03:48:00;;;;;;;24.07;15.67;;;6.40;99.90;;;;;;4953655;29;20266;-76
2022/01/29 03:50:25;;;;;;;28.83;15.70;;;6.40;99.90;;;;;;4953670;28;20176;-76
2022/01/29 03:52:51;;;;;;;27.70;15.13;;;6.40;99.90;;;;;;4952421;28;20190;-76
2022/01/29 03:55:17;;;;;;;26.80;16.00;;;6.40;99.90;;;;;;4953758;28;20245;-76
2022/01/29 03:57:42;;;;;;;29.53;16.40;;;6.40;99.90;;;;;;4953562;28;20240;-77
2022/01/29 04:00:09;;;;;;;26.73;16.07;;;6.40;99.90;;;;;;4953588;28;20178;-76
2022/01/29 04:02:35;;;;;;;21.47;14.93;;;6.40;99.90;;;;;;4953477;28;20175;-76
2022/01/29 04:05:01;;;;;;;24.03;14.77;;;6.40;99.90;;;;;;4954002;28;20234;-76
2022/01/29 04:07:27;;;;;;;22.70;15.53;;;6.40;99.90;;;;;;4951604;28;20595;-76
2022/01/29 04:09:54;;;;;;;25.63;14.67;;;6.40;99.90;;;;;;4953154;28;20287;-76
2022/01/29 04:12:19;;;;;;;25.93;15.90;;;6.40;99.90;;;;;;4951854;28;20179;-76
2022/01/29 04:14:45;;;;;;;24.13;14.83;;;6.40;99.90;;;;;;4951699;28;20606;-76
2022/01/29 04:17:11;;;;;;;25.70;14.57;;;6.40;99.90;;;;;;4951858;28;20660;-76
2022/01/29 04:19:37;;;;;;;22.03;14.63;;;6.50;99.90;;;;;;4953016;28;20175;-76
2022/01/29 04:22:04;;;;;;;22.10;14.90;;;6.50;99.90;;;;;;4953126;28;20215;-76
2022/01/29 04:24:31;;;;;;;26.13;14.73;;;6.50;99.90;;;;;;4951895;29;20274;-75
2022/01/29 04:26:57;;;;;;;23.90;13.97;;;6.50;99.90;;;;;;4953387;28;20175;-76
2022/01/29 04:29:22;;;;;;;22.30;13.40;;;6.50;99.90;;;;;;4953103;28;20179;-76
2022/01/29 04:34:20;;;;;;;21.83;13.90;;;6.50;99.90;;;;;;4953208;29;20198;-76
2022/01/29 04:36:46;;;;;;;22.53;13.37;;;6.50;99.90;;;;;;4952894;28;20195;-76
2022/01/29 04:39:12;;;;;;;24.07;13.70;;;6.50;99.90;;;;;;4952984;28;20178;-76
2022/01/29 04:41:38;;;;;;;20.50;13.40;;;6.50;99.90;;;;;;4951665;28;20262;-76
2022/01/29 04:44:04;;;;;;;19.57;12.40;;;6.60;99.90;;;;;;4952881;28;20302;-76
2022/01/29 04:46:29;;;;;;;24.93;12.37;;;6.50;99.90;;;;;;4951514;28;20774;-76
2022/01/29 04:48:55;;;;;;;18.90;11.93;;;6.50;99.90;;;;;;4952812;28;20198;-76
2022/01/29 04:51:21;;;;;;;18.43;12.60;;;6.50;99.90;;;;;;4952791;28;20262;-76
2022/01/29 04:53:47;;;;;;;18.47;12.00;;;6.50;99.90;;;;;;4952650;28;20171;-76
2022/01/29 04:56:13;;;;;;;21.47;13.17;;;6.50;99.90;;;;;;4952948;28;20270;-76
2022/01/29 04:58:38;;;;;;;19.10;13.40;;;6.50;99.90;;;;;;4953039;28;20592;-76
2022/01/29 05:01:05;;;;;;;19.70;13.00;;;6.50;99.90;;;;;;4952950;28;20576;-76
2022/01/29 05:03:30;;;;;;;19.67;11.97;;;6.50;99.90;;;;;;4953063;28;20232;-76
2022/01/29 05:05:57;;;;;;;18.87;12.33;;;6.50;99.90;;;;;;4952593;28;20269;-76
2022/01/29 05:08:22;;;;;;;19.00;12.23;;;6.50;99.90;;;;;;4952793;28;20179;-76
2022/01/29 05:10:48;;;;;;;19.43;12.10;;;6.50;99.90;;;;;;4951513;28;20664;-76
2022/01/29 05:13:18;;;;;;;18.97;11.87;;;6.50;99.90;;;;;;4952453;28;20187;-76
2022/01/29 05:16:05;;;;;;;19.97;12.07;;;6.50;99.90;;;;;;4951103;29;20207;-76
2022/01/29 05:26:59;;;;;;;19.03;10.53;;;6.50;99.90;;;;;;4952308;29;20733;-76
2022/01/29 05:29:29;;;;;;;15.90;10.87;;;6.50;99.90;;;;;;4951030;29;20175;-76
2022/01/29 05:31:54;;;;;;;13.83;9.33;;;6.50;99.90;;;;;;4952784;28;20178;-76
2022/01/29 05:34:21;;;;;;;15.17;9.87;;;6.50;99.90;;;;;;4952386;28;20201;-76
2022/01/29 05:36:47;;;;;;;15.30;9.97;;;6.50;99.90;;;;;;4951133;29;20599;-76
2022/01/29 05:39:13;;;;;;;16.40;10.67;;;6.50;99.90;;;;;;4952198;28;20167;-76
2022/01/29 05:41:39;;;;;;;15.30;10.07;;;6.60;99.90;;;;;;4950922;29;20229;-76
2022/01/29 05:44:05;;;;;;;16.83;10.37;;;6.50;99.90;;;;;;4950809;28;20684;-76
2022/01/29 05:46:30;;;;;;;13.10;9.50;;;6.60;99.90;;;;;;4950771;28;20203;-76
2022/01/29 05:48:56;;;;;;;17.93;11.27;;;6.60;99.90;;;;;;4952381;28;20292;-76
2022/01/29 05:51:21;;;;;;;15.37;10.03;;;6.60;99.90;;;;;;4952118;28;20548;-76
2022/01/29 05:53:47;;;;;;;14.43;9.90;;;6.60;99.90;;;;;;4952209;28;20171;-76
2022/01/29 05:56:12;;;;;;;14.27;10.07;;;6.60;99.90;;;;;;4951948;28;20195;-76
2022/01/29 05:58:38;;;;;;;16.17;10.67;;;6.60;99.90;;;;;;4950728;28;20186;-76
2022/01/29 06:01:04;;;;;;;15.77;10.37;;;6.60;99.90;;;;;;4951005;28;20197;-76
2022/01/29 06:03:30;;;;;;;15.67;10.67;;;6.60;99.90;;;;;;4952037;28;20217;-75
2022/01/29 06:05:56;;;;;;;15.07;10.40;;;6.60;99.90;;;;;;4951877;28;20195;-76
2022/01/29 06:08:21;;;;;;;13.73;9.80;;;6.60;99.90;;;;;;4951974;28;20203;-76
2022/01/29 06:10:48;;;;;;;14.90;10.37;;;6.70;99.90;;;;;;4950919;28;20249;-76
2022/01/29 06:13:15;;;;;;;17.37;11.00;;;6.60;99.90;;;;;;4951742;28;20186;-77
2022/01/29 06:15:42;;;;;;;14.33;9.83;;;6.60;99.90;;;;;;4951573;28;20688;-76
2022/01/29 06:18:15;;;;;;;13.47;10.37;;;6.70;99.90;;;;;;4951681;28;20216;-76
2022/01/29 06:20:45;;;;;;;13.53;9.63;;;6.70;99.90;;;;;;4950451;28;20228;-77
2022/01/29 06:23:12;;;;;;;13.10;9.43;;;6.70;99.90;;;;;;4951841;28;20175;-76
2022/01/29 06:25:38;;;;;;;13.97;9.67;;;6.70;99.90;;;;;;4950277;29;20684;-76
2022/01/29 06:28:04;;;;;;;14.27;10.03;;;6.80;99.90;;;;;;4950330;28;20786;-76
2022/01/29 06:30:30;;;;;;;15.57;10.17;;;6.80;99.90;;;;;;4952659;28;20257;-76
2022/01/29 06:32:56;;;;;;;13.57;9.87;;;6.80;99.90;;;;;;4954873;28;20175;-76
2022/01/29 06:35:22;;;;;;;16.20;11.27;;;6.90;99.90;;;;;;4953443;28;20218;-76
2022/01/29 06:37:48;;;;;;;17.47;10.80;;;6.90;99.90;;;;;;4953526;28;20189;-76
2022/01/29 06:40:14;;;;;;;14.73;10.53;;;6.90;99.90;;;;;;4953760;28;20179;-77
2022/01/29 06:42:40;;;;;;;16.33;10.57;;;6.90;99.90;;;;;;4954725;28;20171;-77
2022/01/29 06:45:06;;;;;;;16.50;10.90;;;6.90;99.90;;;;;;4953264;28;20219;-76
2022/01/29 06:47:31;;;;;;;17.13;11.67;;;6.90;99.90;;;;;;4954654;28;20182;-76
2022/01/29 06:49:57;;;;;;;18.10;11.20;;;7.00;99.90;;;;;;4954547;28;20645;-76
2022/01/29 06:52:23;;;;;;;14.37;10.77;;;7.10;99.90;;;;;;4955008;28;20278;-77
2022/01/29 06:54:49;;;;;;;14.47;10.30;;;7.00;99.90;;;;;;4953321;28;20261;-77
2022/01/29 06:57:15;;;;;;;15.50;10.80;;;7.00;99.90;;;;;;4954506;28;20585;-77
2022/01/29 06:59:40;;;;;;;16.43;10.77;;;6.90;99.90;;;;;;4953220;28;20175;-77
2022/01/29 07:02:06;;;;;;;17.43;11.80;;;7.00;99.90;;;;;;4954482;28;20211;-77
2022/01/29 07:04:31;;;;;;;15.73;11.57;;;7.00;99.90;;;;;;4954391;28;20534;-76
2022/01/29 07:06:57;;;;;;;16.17;11.57;;;7.00;99.90;;;;;;4954424;28;20175;-77
2022/01/29 07:09:22;;;;;;;19.07;12.50;;;7.00;99.90;;;;;;4954417;28;20198;-77
2022/01/29 07:11:54;;;;;;;16.50;12.00;;;7.00;99.90;;;;;;4954611;28;20176;-77
2022/01/29 07:14:20;;;;;;;16.30;12.13;;;7.10;99.90;;;;;;4954426;28;20186;-76
2022/01/29 07:16:47;;;;;;;19.77;12.03;;;7.10;99.90;;;;;;4954163;28;20191;-77
2022/01/29 07:19:12;;;;;;;17.53;12.67;;;7.10;99.90;;;;;;4953073;29;20175;-78
2022/01/29 07:21:38;;;;;;;20.13;13.17;;;7.20;99.90;;;;;;4954137;28;20526;-76
2022/01/29 07:24:05;;;;;;;20.90;12.63;;;7.30;99.90;;;;;;4954094;28;20258;-76
2022/01/29 07:26:30;;;;;;;21.20;13.13;;;7.30;99.90;;;;;;4953965;28;20199;-76
2022/01/29 07:28:56;;;;;;;18.13;13.23;;;7.30;99.90;;;;;;4954631;28;20702;-77
2022/01/29 07:31:22;;;;;;;18.10;13.10;;;7.40;99.90;;;;;;4954342;28;20205;-77
2022/01/29 07:33:47;;;;;;;18.57;13.57;;;7.40;99.90;;;;;;4952689;28;20560;-76
2022/01/29 07:36:13;;;;;;;17.60;12.67;;;7.40;99.90;;;;;;4953864;28;20214;-77
2022/01/29 07:38:38;;;;;;;17.03;12.07;;;7.40;99.90;;;;;;4954198;28;20668;-77
2022/01/29 07:41:04;;;;;;;15.60;11.13;;;7.50;99.90;;;;;;4952649;28;20207;-76
2022/01/29 07:43:29;;;;;;;15.97;12.30;;;7.50;99.90;;;;;;4951733;28;20270;-77
2022/01/29 07:45:55;;;;;;;16.10;11.77;;;7.40;99.90;;;;;;4954112;28;20195;-76
2022/01/29 07:48:21;;;;;;;16.40;13.10;;;7.50;99.90;;;;;;4952537;28;20224;-76
2022/01/29 07:50:46;;;;;;;18.17;12.60;;;7.50;99.90;;;;;;4952529;28;20277;-77
2022/01/29 07:53:12;;;;;;;16.87;12.57;;;7.50;99.90;;;;;;4953689;28;20198;-76
2022/01/29 07:55:37;;;;;;;17.40;12.43;;;7.50;99.90;;;;;;4953655;28;20218;-77
2022/01/29 07:58:05;;;;;;;17.93;12.70;;;7.60;99.90;;;;;;4953651;28;20236;-77
2022/01/29 08:00:31;;;;;;;19.47;11.63;;;7.60;99.90;;;;;;4953576;28;20541;-77
2022/01/29 08:02:56;;;;;;;17.17;11.43;;;7.60;99.90;;;;;;4953881;28;20186;-77
2022/01/29 08:05:22;;;;;;;17.60;10.83;;;7.60;99.90;;;;;;4952297;28;20195;-77
2022/01/29 08:07:47;;;;;;;14.47;11.37;;;7.60;99.90;;;;;;4953815;28;20178;-78
2022/01/29 08:10:13;;;;;;;15.23;11.13;;;7.70;99.90;;;;;;4952280;28;20194;-77
2022/01/29 08:12:39;;;;;;;14.77;11.13;;;7.60;99.90;;;;;;4953453;28;20187;-77
2022/01/29 08:15:06;;;;;;;17.13;12.63;;;7.70;99.90;;;;;;4953991;28;20238;-78
2022/01/29 08:17:32;;;;;;;15.30;11.57;;;7.70;99.90;;;;;;4952668;29;20171;-78
2022/01/29 08:20:00;;;;;;;15.90;11.43;;;7.70;99.90;;;;;;4952374;28;20229;-78
2022/01/29 08:22:26;;;;;;;17.13;12.10;;;7.70;99.90;;;;;;4953847;28;20174;-78
2022/01/29 08:24:53;;;;;;;15.07;11.43;;;7.70;99.90;;;;;;4952491;28;20206;-77
2022/01/29 08:27:19;;;;;;;16.00;12.03;;;7.70;99.90;;;;;;4953740;28;20179;-78
2022/01/29 08:29:45;;;;;;;16.70;10.97;;;7.70;99.90;;;;;;4954428;28;20179;-79
2022/01/29 08:32:11;;;;;;;19.07;12.53;;;7.80;99.90;;;;;;4953377;28;20182;-77
2022/01/29 08:34:38;;;;;;;15.37;11.17;;;7.80;99.90;;;;;;4951658;29;20241;-77
2022/01/29 08:37:04;;;;;;;14.63;11.03;;;7.80;99.90;;;;;;4951799;28;20175;-77
2022/01/29 08:39:31;;;;;;;14.43;10.53;;;7.80;99.90;;;;;;4951722;28;20175;-77
2022/01/29 08:41:57;;;;;;;16.57;11.97;;;7.80;99.90;;;;;;4952895;28;20167;-78
2022/01/29 08:44:22;;;;;;;13.80;11.00;;;7.90;99.90;;;;;;4952847;28;20262;-77
2022/01/29 08:46:48;;;;;;;16.10;11.30;;;7.90;99.90;;;;;;4951582;28;20224;-77
2022/01/29 08:49:13;;;;;;;15.57;11.20;;;7.90;99.90;;;;;;4953245;28;20179;-76
2022/01/29 08:51:39;;;;;;;14.20;10.73;;;7.90;99.90;;;;;;4952913;28;20201;-76
2022/01/29 08:54:05;;;;;;;13.40;10.33;;;7.90;99.90;;;;;;4952748;28;20203;-77
2022/01/29 08:56:30;;;;;;;16.67;12.00;;;8.00;99.90;;;;;;4953128;28;20191;-77
2022/01/29 08:58:56;;;;;;;15.60;10.60;;;7.90;99.90;;;;;;4953152;28;20182;-77
2022/01/29 09:01:22;;;;;;;14.20;10.90;;;8.00;99.90;;;;;;4953488;28;20175;-77
2022/01/29 09:03:47;;;;;;;15.13;10.47;;;8.00;99.90;;;;;;4951925;28;20618;-78
2022/01/29 09:06:13;;;;;;;14.47;10.80;;;7.90;99.90;;;;;;4953061;28;20194;-78
2022/01/29 09:08:40;;;;;;;15.27;11.03;;;8.00;99.90;;;;;;4954636;28;20175;-77
2022/01/29 09:11:06;;;;;;;14.83;11.13;;;8.00;99.90;;;;;;4952721;28;20175;-79
2022/01/29 09:13:32;;;;;;;15.23;11.13;;;8.00;99.90;;;;;;4951737;29;20569;-76
2022/01/29 09:15:58;;;;;;;13.13;11.27;;;8.00;99.90;;;;;;4952359;28;20214;-76
2022/01/29 09:18:25;;;;;;;14.80;11.33;;;8.00;99.90;;;;;;4952585;28;20197;-77
2022/01/29 09:20:50;;;;;;;13.87;10.90;;;8.00;99.90;;;;;;4952421;28;20190;-77
2022/01/29 09:23:16;;;;;;;16.17;12.07;;;8.00;99.90;;;;;;4952424;28;20174;-76
2022/01/29 09:25:42;;;;;;;12.37;10.00;;;8.00;99.90;;;;;;4952561;28;20203;-76
2022/01/29 09:28:08;;;;;;;12.40;11.10;;;8.00;99.90;;;;;;4952267;28;20190;-77
2022/01/29 09:30:35;;;;;;;15.23;11.07;;;8.10;99.90;;;;;;4951047;29;20186;-77
2022/01/29 09:33:01;;;;;;;16.83;11.63;;;8.10;99.90;;;;;;4952482;28;20564;-78
2022/01/29 09:35:27;;;;;;;14.73;11.27;;;8.20;99.90;;;;;;4951519;28;20218;-79
2022/01/29 09:37:54;;;;;;;15.50;9.93;;;8.10;99.90;;;;;;4983560;23;20255;-79
2022/01/29 09:40:20;;;;;;;16.60;10.87;;;8.20;99.90;;;;;;5019373;28;20207;-80
2022/01/29 09:42:47;;;;;;;15.07;11.47;;;8.20;99.90;;;;;;5038773;28;20168;-81
2022/01/29 09:45:18;;;;;;;14.90;11.27;;;8.20;99.90;;;;;;5038793;28;20172;-80
2022/01/29 09:47:45;;;;;;;15.87;10.77;;;8.30;99.90;;;;;;5020646;28;20253;-80
2022/01/29 09:50:13;;;;;;;14.30;10.97;;;8.30;99.90;;;;;;5037069;28;20550;-80
2022/01/29 09:52:39;;;;;;;12.87;10.07;;;8.30;99.90;;;;;;5038998;28;20176;-80
2022/01/29 09:55:06;;;;;;;12.47;10.60;;;8.40;99.90;;;;;;5037719;28;20202;-80
2022/01/29 09:57:34;;;;;;;14.67;10.73;;;8.40;99.90;;;;;;5039046;28;20175;-80
2022/01/29 09:59:59;;;;;;;12.93;10.47;;;8.40;99.90;;;;;;5038116;28;20263;-80
2022/01/29 10:02:25;;;;;;;13.87;10.37;;;8.50;99.90;;;;;;5037338;28;20214;-80
2022/01/29 10:04:56;;;;;;;13.47;9.87;;;8.50;99.90;;;;;;5038639;28;20178;-80
2022/01/29 10:07:28;;;;;;;13.10;10.20;;;8.60;99.90;;;;;;5042273;28;20177;-80
2022/01/29 10:09:55;;;;;;;13.13;10.47;;;8.50;99.90;;;;;;5042400;28;20168;-80
2022/01/29 10:12:30;;;;;;;13.23;10.20;;;8.50;99.90;;;;;;5042176;28;20172;-79
2022/01/29 10:15:01;;;;;;;14.03;10.67;;;8.50;99.90;;;;;;5040156;28;20199;-80
2022/01/29 10:17:49;;;;;;;15.03;10.53;;;8.60;99.90;;;;;;5040715;28;20626;-82
2022/01/29 10:20:21;;;;;;;13.40;10.13;;;8.60;99.90;;;;;;5041908;28;20160;-80
2022/01/29 10:22:51;;;;;;;12.23;9.70;;;8.70;99.90;;;;;;5040757;28;20160;-80
2022/01/29 10:25:21;;;;;;;13.10;8.63;;;8.70;99.90;;;;;;5042035;28;20171;-80
2022/01/29 10:28:05;;;;;;;14.33;10.30;;;8.70;99.90;;;;;;5042711;28;20200;-80
2022/01/29 10:30:31;;;;;;;11.70;9.57;;;8.70;99.90;;;;;;5043645;28;20267;-80
2022/01/29 10:33:38;;;;;;;15.10;9.13;;;8.70;99.90;;;;;;5044504;28;20202;-80
2022/01/29 10:36:09;;;;;;;10.17;9.00;;;8.80;99.90;;;;;;5002422;28;20267;-81
2022/01/29 10:38:40;;;;;;;11.93;9.27;;;8.80;99.90;;;;;;4986936;28;20691;-80
2022/01/29 10:41:14;;;;;;;12.13;9.20;;;8.80;99.90;;;;;;5027461;28;20188;-80
2022/01/29 10:46:58;;;;;;;11.23;8.83;;;8.90;99.90;;;;;;5043015;28;20669;-80
2022/01/29 10:49:37;;;;;;;11.90;9.33;;;8.90;99.90;;;;;;5041135;28;20196;-80
2022/01/29 10:52:08;;;;;;;11.13;8.93;;;9.00;99.90;;;;;;5042275;28;20160;-80
2022/01/29 10:54:35;;;;;;;11.47;9.03;;;9.00;99.90;;;;;;5044790;28;20203;-80
2022/01/29 10:57:08;;;;;;;11.97;8.83;;;9.00;99.90;;;;;;5055758;28;20172;-81
2022/01/29 10:59:54;;;;;;;10.07;8.53;;;9.00;99.90;;;;;;5055602;28;20206;-80
2022/01/29 11:02:23;;;;;;;11.53;8.47;;;9.00;99.90;;;;;;5040876;28;20693;-81
2022/01/29 11:04:49;;;;;;;9.70;7.43;;;8.90;99.90;;;;;;5039552;28;20235;-82
2022/01/29 11:07:19;;;;;;;11.00;8.10;;;9.00;99.90;;;;;;5040394;28;20176;-84
2022/01/29 11:09:47;;;;;;;9.87;8.17;;;8.90;99.90;;;;;;5042768;28;20152;-82
2022/01/29 11:12:18;;;;;;;10.13;7.73;;;8.90;99.90;;;;;;5040838;28;20203;-81
2022/01/29 11:14:44;;;;;;;7.90;6.90;;;8.90;99.90;;;;;;5041837;28;20234;-82
2022/01/29 11:17:12;;;;;;;9.60;8.00;;;8.90;99.90;;;;;;5041733;28;20306;-83
2022/01/29 11:19:42;;;;;;;8.67;7.33;;;8.90;99.90;;;;;;5041464;28;20733;-82
2022/01/29 11:22:09;;;;;;;11.20;7.40;;;8.90;99.90;;;;;;5041642;28;20172;-82
2022/01/29 11:24:37;;;;;;;9.83;7.47;;;9.00;99.90;;;;;;5041835;28;20552;-82
2022/01/29 11:27:19;;;;;;;10.77;7.40;;;8.90;99.90;;;;;;5041508;28;20202;-82
2022/01/29 11:30:11;;;;;;;10.03;7.67;;;8.90;99.90;;;;;;5041937;28;20167;-82
2022/01/29 11:32:52;;;;;;;8.40;6.53;;;8.90;99.90;;;;;;5040388;28;20603;-82
2022/01/29 11:35:28;;;;;;;8.83;6.97;;;8.90;99.90;;;;;;5040112;28;20192;-81
2022/01/29 11:38:03;;;;;;;8.40;5.97;;;8.90;99.90;;;;;;5040081;28;20210;-82
2022/01/29 11:40:36;;;;;;;7.57;6.10;;;9.00;99.90;;;;;;5041500;28;20190;-82
2022/01/29 11:43:21;;;;;;;7.07;5.70;;;9.00;99.90;;;;;;5040397;28;20172;-82
2022/01/29 11:46:06;;;;;;;7.20;5.80;;;9.00;99.90;;;;;;5039466;28;20168;-81
2022/01/29 11:48:34;;;;;;;8.43;5.50;;;9.00;99.90;;;;;;5041949;28;20188;-81
2022/01/29 11:51:07;;;;;;;8.20;4.87;;;9.00;99.90;;;;;;5040234;28;20176;-83
2022/01/29 11:53:45;;;;;;;5.10;4.60;;;9.10;99.90;;;;;;5040644;28;20685;-82
2022/01/29 11:56:28;;;;;;;5.10;4.60;;;9.10;99.90;;;;;;5040497;28;20203;-82
2022/01/29 11:59:19;;;;;;;5.47;4.10;;;9.10;99.90;;;;;;5041698;28;20192;-82
2022/01/29 12:01:46;;;;;;;4.33;3.87;;;9.20;99.90;;;;;;5041355;28;20160;-82
2022/01/29 12:04:12;;;;;;;6.30;3.87;;;9.20;99.90;;;;;;5040003;28;20642;-82
2022/01/29 12:07:13;;;;;;;3.93;3.37;;;9.30;99.90;;;;;;5040639;28;20255;-82
2022/01/29 12:09:48;;;;;;;3.70;3.40;;;9.30;99.90;;;;;;5041464;28;20188;-82
2022/01/29 12:12:18;;;;;;;4.47;3.07;;;9.40;99.90;;;;;;5041360;28;20265;-81
2022/01/29 12:15:08;;;;;;;4.43;3.10;;;9.40;99.90;;;;;;5040588;28;20287;-81
2022/01/29 12:17:47;;;;;;;3.37;3.07;;;9.40;99.90;;;;;;5040827;28;20179;-82
2022/01/29 12:20:16;;;;;;;3.27;2.97;;;9.50;99.90;;;;;;5040880;28;20149;-81
2022/01/29 12:22:44;;;;;;;3.60;2.70;;;9.50;99.90;;;;;;5040823;28;20176;-82
2022/01/29 12:25:11;;;;;;;3.43;2.67;;;9.50;99.90;;;;;;5040613;28;20172;-82
2022/01/29 12:27:47;;;;;;;2.97;2.57;;;9.50;99.90;;;;;;5039544;28;20880;-82
2022/01/29 12:30:21;;;;;;;3.47;2.50;;;9.60;99.90;;;;;;5040899;28;20172;-82
2022/01/29 12:32:55;;;;;;;3.17;2.87;;;9.60;99.90;;;;;;5039781;28;20176;-82
2022/01/29 12:35:21;;;;;;;2.27;2.07;;;9.60;99.90;;;;;;5039510;28;20206;-82
2022/01/29 12:37:54;;;;;;;2.77;2.47;;;9.60;99.90;;;;;;5039859;28;20208;-82
2022/01/29 12:40:22;;;;;;;5.27;2.70;;;9.70;99.90;;;;;;5038734;28;20630;-82
2022/01/29 12:42:59;;;;;;;2.70;2.43;;;9.80;99.90;;;;;;5039653;28;20255;-82
2022/01/29 12:45:27;;;;;;;3.27;2.97;;;9.80;99.90;;;;;;5038844;28;20630;-82
2022/01/29 12:48:07;;;;;;;2.93;2.63;;;9.80;99.90;;;;;;5039331;28;20192;-82
2022/01/29 12:50:33;;;;;;;4.90;2.93;;;9.90;99.90;;;;;;5039099;28;20227;-81
2022/01/29 12:53:25;;;;;;;4.10;3.23;;;9.90;99.90;;;;;;5040517;28;20168;-83
2022/01/29 12:56:01;;;;;;;2.63;2.43;;;10.00;99.90;;;;;;5037580;28;20211;-83
2022/01/29 12:58:31;;;;;;;6.93;2.90;;;9.90;99.90;;;;;;5038303;28;20766;-84
2022/01/29 13:01:04;;;;;;;3.23;2.40;;;9.90;99.90;;;;;;5040468;28;20164;-82
2022/01/29 13:03:30;;;;;;;5.67;3.20;;;10.00;99.90;;;;;;5038479;28;20170;-80